Time;durP1;ratioP1;P1;durP2;ratioP2;P2;SDS_P1;SDS_P2;PMS_P1;PMS_P2;Temp;Humidity;BMP_temperature;BMP_pressure;BME280_temperature;BME280_humidity;BME280_pressure;Samples;Min_cycle;Max_cycle;Signal;HPM_P1;HPM_P2
2023/06/22 00:01:19;;;;;;;35.70;7.32;;;;;;;22.16;100.00;100589.41;5019652;28;20226;-78
2023/06/22 00:03:46;;;;;;;59.65;11.25;;;;;;;22.24;100.00;100604.34;5027362;28;20222;-78
2023/06/22 00:06:12;;;;;;;51.65;11.70;;;;;;;22.25;100.00;100611.50;5035396;28;20234;-78
2023/06/22 00:08:40;;;;;;;36.95;7.25;;;;;;;22.33;100.00;100606.72;5039870;28;20312;-78
2023/06/22 00:11:07;;;;;;;32.47;6.40;;;;;;;22.37;100.00;100604.78;5016068;28;20230;-78
2023/06/22 00:13:33;;;;;;;46.17;8.90;;;;;;;22.32;100.00;100610.34;5039381;28;20229;-78
2023/06/22 00:16:00;;;;;;;48.70;9.70;;;;;;;22.31;100.00;100618.47;5034621;28;20260;-78
2023/06/22 00:18:27;;;;;;;35.88;7.25;;;;;;;22.36;100.00;100616.50;5040401;28;20230;-77
2023/06/22 00:20:58;;;;;;;58.95;11.38;;;;;;;22.37;100.00;100612.00;5024408;28;20258;-78
2023/06/22 00:23:25;;;;;;;27.90;5.25;;;;;;;22.42;100.00;100626.16;5039854;28;20240;-78
2023/06/22 00:25:52;;;;;;;71.20;14.77;;;;;;;22.44;100.00;100653.94;5035806;28;20221;-78
2023/06/22 00:28:19;;;;;;;27.52;5.53;;;;;;;22.39;100.00;100716.09;5037987;28;20230;-77
2023/06/22 00:30:47;;;;;;;58.95;12.05;;;;;;;22.34;100.00;100801.59;5033496;28;20224;-77
2023/06/22 00:33:15;;;;;;;35.13;6.95;;;;;;;22.58;100.00;100848.41;5039367;28;20368;-77
2023/06/22 00:35:43;;;;;;;44.92;8.48;;;;;;;22.70;100.00;100833.63;5034167;28;20242;-76
2023/06/22 00:38:10;;;;;;;40.60;7.60;;;;;;;22.77;100.00;100741.66;5019822;28;20280;-76
2023/06/22 00:40:37;;;;;;;39.33;7.82;;;;;;;22.42;100.00;100691.72;5040961;28;20230;-80
2023/06/22 00:43:04;;;;;;;45.42;9.07;;;;;;;22.21;100.00;100682.59;5023082;28;20225;-79
2023/06/22 00:45:31;;;;;;;25.23;5.13;;;;;;;22.01;100.00;100691.28;5036646;28;20224;-76
2023/06/22 00:47:59;;;;;;;68.25;15.15;;;;;;;22.02;100.00;100698.47;5033688;28;20253;-77
2023/06/22 00:50:28;;;;;;;25.88;4.85;;;;;;;21.84;100.00;100700.88;5020437;28;20276;-77
2023/06/22 00:52:58;;;;;;;62.58;13.90;;;;;;;21.72;100.00;100670.72;5034212;28;20276;-78
2023/06/22 00:55:28;;;;;;;34.70;6.53;;;;;;;21.67;100.00;100702.28;5022505;28;20283;-78
2023/06/22 00:57:55;;;;;;;67.22;14.52;;;;;;;21.61;100.00;100724.03;5032087;28;20237;-78
2023/06/22 01:00:25;;;;;;;34.05;6.50;;;;;;;21.61;100.00;100750.06;5023402;28;20683;-77
2023/06/22 01:02:53;;;;;;;62.42;19.90;;;;;;;21.65;100.00;100784.03;5036441;28;20257;-78
2023/06/22 01:05:21;;;;;;;32.30;6.55;;;;;;;21.65;100.00;100819.00;5039088;28;20222;-78
2023/06/22 01:08:17;;;;;;;51.03;11.25;;;;;;;21.69;100.00;100812.59;5031387;28;20234;-78
2023/06/22 01:11:10;;;;;;;42.70;8.35;;;;;;;21.80;100.00;100809.59;5037547;28;20234;-78
2023/06/22 01:13:46;;;;;;;41.25;7.65;;;;;;;21.81;100.00;100812.22;5012240;28;20664;-78
2023/06/22 01:16:23;;;;;;;36.97;7.50;;;;;;;21.71;100.00;100811.63;5033047;28;20229;-78
2023/06/22 01:18:53;;;;;;;66.15;15.43;;;;;;;21.61;100.00;100833.50;5033548;28;20226;-78
2023/06/22 01:21:21;;;;;;;44.45;8.57;;;;;;;21.65;100.00;100845.94;5020697;28;20222;-79
2023/06/22 01:24:15;;;;;;;68.28;14.00;;;;;;;21.56;100.00;100844.41;5019311;28;20221;-80
2023/06/22 01:27:13;;;;;;;32.88;6.65;;;;;;;21.45;100.00;100841.16;5014922;28;20233;-76
2023/06/22 01:29:40;;;;;;;35.67;9.65;;;;;;;21.45;100.00;100845.66;5013558;28;20252;-76
2023/06/22 01:32:12;;;;;;;38.55;7.85;;;;;;;21.42;100.00;100853.81;5018760;28;20221;-78
2023/06/22 01:34:40;;;;;;;45.35;9.00;;;;;;;21.42;100.00;100864.56;5000942;28;20265;-79
2023/06/22 01:37:07;;;;;;;36.03;6.63;;;;;;;21.34;100.00;100865.66;5005166;28;20245;-80
2023/06/22 01:39:34;;;;;;;37.78;7.65;;;;;;;21.42;100.00;100875.34;5018170;28;20238;-79
2023/06/22 01:42:02;;;;;;;44.67;9.13;;;;;;;21.37;100.00;100870.97;5014222;28;20230;-79
2023/06/22 01:44:29;;;;;;;36.70;7.10;;;;;;;21.35;100.00;100880.88;5034569;28;20280;-80
2023/06/22 01:46:56;;;;;;;53.30;11.65;;;;;;;21.35;100.00;100871.94;5000667;28;20697;-77
2023/06/22 01:49:23;;;;;;;25.33;4.88;;;;;;;21.33;100.00;100863.91;5038696;28;20229;-76
2023/06/22 01:51:50;;;;;;;54.70;11.80;;;;;;;21.28;100.00;100871.22;5016081;28;20230;-76
2023/06/22 01:54:17;;;;;;;44.03;8.40;;;;;;;21.18;100.00;100874.19;5037218;28;20721;-75
2023/06/22 01:56:43;;;;;;;44.05;9.00;;;;;;;21.09;100.00;100868.13;5029648;28;20227;-75
2023/06/22 01:59:29;;;;;;;30.80;6.03;;;;;;;21.19;100.00;100875.94;5020050;28;20255;-76
2023/06/22 02:02:04;;;;;;;77.15;19.58;;;;;;;21.26;100.00;100881.16;5019747;28;20237;-76
2023/06/22 02:04:36;;;;;;;34.42;6.80;;;;;;;21.25;100.00;100883.88;5003424;28;20312;-76
2023/06/22 02:07:06;;;;;;;51.42;11.57;;;;;;;21.14;100.00;100885.94;5015039;28;20234;-76
2023/06/22 02:09:34;;;;;;;41.88;10.32;;;;;;;21.00;100.00;100886.31;5018704;28;20231;-76
2023/06/22 02:12:02;;;;;;;46.00;11.00;;;;;;;20.96;100.00;100903.44;4993597;28;20246;-76
2023/06/22 02:14:29;;;;;;;34.58;7.15;;;;;;;21.02;100.00;100906.88;5029905;28;20229;-76
2023/06/22 02:16:58;;;;;;;52.88;11.45;;;;;;;21.03;100.00;100907.75;5007371;28;20230;-76
2023/06/22 02:19:26;;;;;;;35.42;9.52;;;;;;;20.96;100.00;100912.41;5015710;28;20288;-76
2023/06/22 02:21:53;;;;;;;64.35;15.60;;;;;;;20.94;100.00;100919.63;5013785;28;20230;-77
2023/06/22 02:24:23;;;;;;;52.10;10.65;;;;;;;20.96;100.00;100924.97;5033707;28;20225;-79
2023/06/22 02:26:50;;;;;;;47.63;10.32;;;;;;;20.92;100.00;100925.97;5022750;28;20326;-80
2023/06/22 02:29:17;;;;;;;32.50;6.40;;;;;;;20.91;100.00;100930.47;5036123;28;20229;-79
2023/06/22 02:31:44;;;;;;;55.08;11.40;;;;;;;20.91;100.00;100943.91;5035057;28;20226;-78
2023/06/22 02:34:17;;;;;;;38.42;7.25;;;;;;;20.81;100.00;100937.00;5040294;28;20591;-79
2023/06/22 02:36:51;;;;;;;60.20;12.23;;;;;;;20.81;100.00;100937.00;5029640;28;20230;-81
2023/06/22 02:39:24;;;;;;;32.88;6.38;;;;;;;20.83;100.00;100934.25;5022789;28;20655;-79
2023/06/22 02:41:54;;;;;;;68.43;14.63;;;;;;;20.66;100.00;100930.16;5035920;28;20609;-80
2023/06/22 02:44:22;;;;;;;37.05;7.38;;;;;;;20.53;100.00;100912.56;5041372;28;20237;-80
2023/06/22 02:46:49;;;;;;;71.28;13.45;;;;;;;20.45;100.00;100917.25;5035945;28;20239;-80
2023/06/22 02:49:15;;;;;;;35.22;6.70;;;;;;;20.43;100.00;100922.66;5038721;28;20261;-80
2023/06/22 02:51:45;;;;;;;39.03;7.85;;;;;;;20.44;100.00;100923.53;5035763;28;20226;-76
2023/06/22 02:54:12;;;;;;;37.42;7.10;;;;;;;20.37;100.00;100914.72;5038343;28;20237;-76
2023/06/22 02:56:40;;;;;;;43.25;12.13;;;;;;;20.38;100.00;100929.03;5042033;28;20226;-76
2023/06/22 02:59:07;;;;;;;47.53;20.85;;;;;;;20.33;100.00;100925.56;5042786;28;20257;-76
2023/06/22 03:01:39;;;;;;;38.65;10.57;;;;;;;20.37;100.00;100912.03;5037601;28;20228;-76
2023/06/22 03:04:08;;;;;;;40.80;8.07;;;;;;;20.45;100.00;100918.13;5035632;28;20237;-76
2023/06/22 03:06:35;;;;;;;40.83;25.17;;;;;;;20.42;100.00;100922.69;5040661;28;20227;-76
2023/06/22 03:09:04;;;;;;;56.35;26.17;;;;;;;20.47;100.00;100930.63;5031577;28;20226;-76
2023/06/22 03:11:32;;;;;;;55.20;47.08;;;;;;;20.42;100.00;100926.25;5039422;28;20295;-76
2023/06/22 03:14:00;;;;;;;95.35;43.17;;;;;;;20.49;100.00;100921.63;5030171;28;20230;-76
2023/06/22 03:16:27;;;;;;;45.72;15.30;;;;;;;20.46;100.00;100913.63;5035027;28;20226;-76
2023/06/22 03:18:53;;;;;;;78.78;29.67;;;;;;;20.38;100.00;100908.41;5035246;28;20237;-76
2023/06/22 03:21:22;;;;;;;64.45;19.13;;;;;;;20.44;100.00;100926.22;5038701;28;20280;-76
2023/06/22 03:23:49;;;;;;;76.95;20.98;;;;;;;20.37;100.00;100928.13;5028877;28;20224;-77
2023/06/22 03:26:19;;;;;;;36.17;7.45;;;;;;;20.38;100.00;100937.09;5017980;28;20237;-77
2023/06/22 03:28:46;;;;;;;68.22;15.52;;;;;;;20.40;100.00;100940.66;5033761;28;20214;-77
2023/06/22 03:31:13;;;;;;;34.15;6.63;;;;;;;20.43;100.00;100945.94;5038172;28;20233;-76
2023/06/22 03:33:39;;;;;;;35.45;7.13;;;;;;;20.50;100.00;100955.63;5035413;28;20226;-76
2023/06/22 03:36:07;;;;;;;42.92;8.52;;;;;;;20.45;100.00;100954.84;5028606;28;20237;-76
2023/06/22 03:38:34;;;;;;;35.67;6.85;;;;;;;20.39;100.00;100957.69;5032744;28;20316;-76
2023/06/22 03:41:00;;;;;;;49.83;10.15;;;;;;;20.46;100.00;100959.31;5032350;28;20235;-76
2023/06/22 03:43:27;;;;;;;33.53;6.30;;;;;;;20.40;100.00;100964.81;5018727;28;20227;-76
2023/06/22 03:45:54;;;;;;;66.78;14.82;;;;;;;20.47;100.00;100971.81;5026657;28;20574;-76
2023/06/22 03:48:20;;;;;;;36.42;6.97;;;;;;;20.43;100.00;100979.06;5035958;28;20222;-77
2023/06/22 03:50:47;;;;;;;39.15;8.63;;;;;;;20.48;100.00;100975.41;5032115;28;20227;-76
2023/06/22 03:53:14;;;;;;;40.47;7.82;;;;;;;20.45;100.00;100976.34;5035846;28;20246;-77
2023/06/22 03:55:51;;;;;;;36.60;7.82;;;;;;;20.48;100.00;100980.78;5035685;28;20222;-76
2023/06/22 03:58:20;;;;;;;28.67;5.47;;;;;;;20.44;100.00;100975.47;5036934;28;20244;-77
2023/06/22 04:00:51;;;;;;;58.47;13.15;;;;;;;20.46;100.00;100980.81;5028419;28;20246;-77
2023/06/22 04:03:18;;;;;;;47.03;8.82;;;;;;;20.48;100.00;100978.97;5029037;28;20250;-76
2023/06/22 04:05:46;;;;;;;73.40;16.15;;;;;;;20.42;100.00;100973.75;5026162;28;20249;-76
2023/06/22 04:08:13;;;;;;;41.47;7.82;;;;;;;20.51;100.00;100986.97;5037194;28;20241;-76
2023/06/22 04:10:40;;;;;;;31.42;6.00;;;;;;;20.54;100.00;100988.69;5036436;28;20667;-77
2023/06/22 04:13:07;;;;;;;33.42;6.57;;;;;;;20.53;100.00;100982.44;5033143;28;20230;-76
2023/06/22 04:15:34;;;;;;;29.95;5.65;;;;;;;20.55;100.00;100975.22;5037720;28;20231;-76
2023/06/22 04:18:00;;;;;;;44.78;9.07;;;;;;;20.44;100.00;100964.72;5032509;28;20260;-77
2023/06/22 04:20:27;;;;;;;31.95;6.05;;;;;;;20.40;100.00;100970.19;5037589;28;20230;-76
2023/06/22 04:22:55;;;;;;;74.45;16.52;;;;;;;20.40;100.00;100970.19;5011532;28;20249;-76
2023/06/22 04:25:22;;;;;;;33.33;6.50;;;;;;;20.43;100.00;100965.66;5035789;28;20227;-77
2023/06/22 04:27:49;;;;;;;52.25;11.43;;;;;;;20.40;100.00;100965.72;5013946;28;20226;-77
2023/06/22 04:30:16;;;;;;;38.40;7.25;;;;;;;20.38;100.00;100959.47;5033924;28;20222;-77
2023/06/22 04:32:44;;;;;;;49.75;10.13;;;;;;;20.35;100.00;100959.53;5028696;28;20222;-76
2023/06/22 04:35:11;;;;;;;39.47;7.70;;;;;;;20.38;100.00;100961.25;5038114;28;20229;-76
2023/06/22 04:37:39;;;;;;;32.97;6.32;;;;;;;20.30;100.00;100956.06;5039809;28;20303;-76
2023/06/22 04:40:06;;;;;;;54.58;11.07;;;;;;;20.30;100.00;100952.50;5015186;28;20226;-76
2023/06/22 04:42:39;;;;;;;35.33;6.95;;;;;;;20.40;100.00;100968.41;5035588;28;20233;-76
2023/06/22 04:45:06;;;;;;;27.90;5.78;;;;;;;20.47;100.00;100976.31;5031305;28;20233;-77
2023/06/22 04:47:32;;;;;;;34.20;6.53;;;;;;;20.49;100.00;100970.00;5021057;28;20367;-77
2023/06/22 04:50:05;;;;;;;75.43;18.25;;;;;;;20.61;100.00;100976.88;5016162;28;20287;-76
2023/06/22 04:52:32;;;;;;;32.85;6.30;;;;;;;20.54;100.00;100972.56;5039606;28;20234;-77
2023/06/22 04:55:00;;;;;;;71.45;15.98;;;;;;;20.62;100.00;100970.59;5032757;28;20232;-77
2023/06/22 04:57:32;;;;;;;38.05;8.23;;;;;;;20.68;100.00;100970.44;5037608;28;20230;-77
2023/06/22 05:00:12;;;;;;;80.80;17.90;;;;;;;20.75;100.00;100969.38;5033654;28;20238;-76
2023/06/22 05:02:40;;;;;;;38.65;7.65;;;;;;;20.72;100.00;100964.06;5015531;28;20686;-76
2023/06/22 05:05:07;;;;;;;36.35;7.57;;;;;;;20.81;100.00;100976.44;5034732;28;20627;-77
2023/06/22 05:07:34;;;;;;;35.97;7.03;;;;;;;20.77;100.00;100997.97;5036424;28;20280;-76
2023/06/22 05:10:02;;;;;;;49.80;12.73;;;;;;;20.84;100.00;100989.81;5012619;28;20242;-76
2023/06/22 05:12:30;;;;;;;41.55;9.98;;;;;;;20.89;100.00;100990.56;5028054;28;20242;-76
2023/06/22 05:14:57;;;;;;;70.75;16.60;;;;;;;21.00;100.00;100996.56;5025858;28;20233;-76
2023/06/22 05:17:24;;;;;;;31.70;7.47;;;;;;;21.05;100.00;100989.25;5024272;28;20230;-75
2023/06/22 05:19:51;;;;;;;53.55;11.63;;;;;;;21.07;100.00;100984.72;5015637;28;20325;-76
2023/06/22 05:22:18;;;;;;;41.60;8.07;;;;;;;21.14;100.00;100982.78;5019048;28;20233;-76
2023/06/22 05:24:45;;;;;;;62.13;12.88;;;;;;;21.13;100.00;100967.56;5021993;28;20230;-76
2023/06/22 05:27:13;;;;;;;41.33;8.00;;;;;;;21.16;100.00;100952.22;5032535;28;20232;-77
2023/06/22 05:29:40;;;;;;;41.17;8.18;;;;;;;21.17;100.00;100951.28;5035571;28;20222;-77
2023/06/22 05:32:07;;;;;;;34.15;7.28;;;;;;;21.31;100.00;100946.47;5026807;28;20249;-76
2023/06/22 05:34:33;;;;;;;35.17;8.25;;;;;;;21.31;100.00;100945.59;5033691;28;20228;-76
2023/06/22 05:37:00;;;;;;;44.80;9.05;;;;;;;21.36;100.00;100941.84;5024908;28;20336;-76
2023/06/22 05:39:27;;;;;;;48.80;9.77;;;;;;;21.45;100.00;100940.69;5016324;28;20229;-76
2023/06/22 05:41:54;;;;;;;67.75;14.07;;;;;;;21.49;100.00;100933.44;5035253;28;20233;-77
2023/06/22 05:44:20;;;;;;;31.67;6.10;;;;;;;21.62;100.00;100934.84;5032861;28;20291;-77
2023/06/22 05:46:48;;;;;;;38.72;8.48;;;;;;;21.77;100.00;100939.78;5025354;28;20239;-77
2023/06/22 05:49:16;;;;;;;26.13;5.50;;;;;;;21.83;100.00;100926.16;5036652;28;20276;-77
2023/06/22 05:51:43;;;;;;;30.15;6.47;;;;;;;21.87;100.00;100913.47;5027012;28;20226;-76
2023/06/22 05:54:09;;;;;;;22.48;4.75;;;;;;;21.90;100.00;100921.47;5017268;28;20230;-77
2023/06/22 05:56:36;;;;;;;24.90;5.38;;;;;;;21.99;100.00;100892.44;5030926;28;20226;-76
2023/06/22 05:59:04;;;;;;;31.67;7.13;;;;;;;22.02;100.00;100886.09;5022323;28;20234;-78
2023/06/22 06:01:34;;;;;;;20.80;4.63;;;;;;;22.22;100.00;100888.22;5037760;28;20250;-77
2023/06/22 06:04:03;;;;;;;31.48;6.82;;;;;;;22.41;100.00;100893.91;5030871;28;20245;-77
2023/06/22 06:06:31;;;;;;;24.75;5.28;;;;;;;22.37;100.00;100884.16;5038350;28;20299;-77
2023/06/22 06:08:59;;;;;;;50.97;11.95;;;;;;;22.45;100.00;100855.13;5033135;28;20693;-77
2023/06/22 06:11:26;;;;;;;23.63;4.97;;;;;;;22.70;100.00;100852.50;5031612;28;20227;-78
2023/06/22 06:13:53;;;;;;;47.92;11.70;;;;;;;22.71;100.00;100844.34;5032759;28;20316;-77
2023/06/22 06:16:20;;;;;;;23.30;4.95;;;;;;;22.85;100.00;100847.47;5035601;28;20233;-77
2023/06/22 06:18:48;;;;;;;36.17;8.30;;;;;;;22.81;100.00;100832.34;5027800;28;20234;-77
2023/06/22 06:21:15;;;;;;;39.83;8.73;;;;;;;23.00;100.00;100835.28;5035097;28;20268;-77
2023/06/22 06:23:42;;;;;;;23.02;4.88;;;;;;;23.21;100.00;100818.28;5026175;28;20226;-77
2023/06/22 06:26:09;;;;;;;24.75;5.30;;;;;;;23.26;100.00;100794.72;5036427;28;20221;-77
2023/06/22 06:28:35;;;;;;;23.45;5.38;;;;;;;23.41;100.00;100797.81;5039993;28;20229;-78
2023/06/22 06:31:02;;;;;;;31.52;7.13;;;;;;;23.50;100.00;100778.56;5027965;28;20237;-78
2023/06/22 06:33:29;;;;;;;18.85;4.05;;;;;;;23.54;100.00;100764.91;5034235;28;20242;-78
2023/06/22 06:35:56;;;;;;;41.22;10.07;;;;;;;23.59;100.00;100753.94;5031231;28;20229;-78
2023/06/22 06:38:23;;;;;;;20.38;4.57;;;;;;;23.68;100.00;100742.78;5039387;28;20230;-78
2023/06/22 06:40:50;;;;;;;45.75;11.05;;;;;;;23.73;100.00;100708.34;5034622;28;20725;-77
2023/06/22 06:43:16;;;;;;;23.73;4.93;;;;;;;23.84;100.00;100687.19;5036271;28;20229;-78
2023/06/22 06:45:44;;;;;;;25.30;5.90;;;;;;;23.99;100.00;100687.50;5028559;28;20267;-78
2023/06/22 06:48:11;;;;;;;23.00;5.18;;;;;;;23.90;100.00;100664.44;5035177;28;20341;-78
2023/06/22 06:50:37;;;;;;;24.60;5.18;;;;;;;23.89;100.00;100655.47;5015928;28;20229;-79
2023/06/22 06:53:05;;;;;;;24.30;5.72;;;;;;;24.18;100.00;100656.91;5034804;28;20222;-78
2023/06/22 06:55:32;;;;;;;23.75;5.05;;;;;;;24.61;100.00;100651.44;5037377;28;20245;-79
2023/06/22 06:57:59;;;;;;;50.67;10.10;;;;;;;24.57;100.00;100608.31;5038748;28;20275;-81
2023/06/22 07:00:26;;;;;;;26.70;5.60;;;;;;;24.51;100.00;100559.06;5043328;28;20218;-79
2023/06/22 07:02:54;;;;;;;48.40;10.30;;;;;;;24.78;100.00;100556.91;5038116;28;20295;-79
2023/06/22 07:05:21;;;;;;;21.15;4.82;;;;;;;24.74;100.00;100529.13;5036049;28;20320;-80
2023/06/22 07:07:49;;;;;;;45.75;9.48;;;;;;;24.94;100.00;100521.88;5040859;28;20227;-79
2023/06/22 07:10:16;;;;;;;29.80;6.85;;;;;;;24.92;100.00;100494.91;5040596;28;20226;-79
2023/06/22 07:12:43;;;;;;;33.70;7.88;;;;;;;25.04;100.00;100499.75;5031093;28;20219;-79
2023/06/22 07:15:12;;;;;;;27.42;5.75;;;;;;;25.07;100.00;100479.78;5040270;28;20221;-79
2023/06/22 07:17:42;;;;;;;23.05;4.90;;;;;;;25.46;100.00;100504.81;5042602;28;20818;-79
2023/06/22 07:20:11;;;;;;;21.13;4.63;;;;;;;25.35;100.00;100474.72;5037102;28;20256;-79
2023/06/22 07:22:44;;;;;;;24.10;4.95;;;;;;;25.61;100.00;100475.19;5032718;28;20245;-79
2023/06/22 07:25:14;;;;;;;21.95;4.72;;;;;;;25.57;100.00;100451.94;5023702;28;20232;-79
2023/06/22 07:28:02;;;;;;;26.25;5.20;;;;;;;25.76;100.00;100431.06;5034013;28;20277;-79
2023/06/22 07:30:30;;;;;;;26.40;5.72;;;;;;;25.94;100.00;100421.06;5040902;28;20237;-80
2023/06/22 07:32:58;;;;;;;51.20;10.23;;;;;;;26.04;100.00;100400.66;5033836;28;20229;-80
2023/06/22 07:35:26;;;;;;;20.27;4.57;;;;;;;26.32;100.00;100414.47;5037533;28;20280;-80
2023/06/22 07:37:52;;;;;;;48.20;10.20;;;;;;;26.37;100.00;100392.50;5035548;28;20238;-79
2023/06/22 07:40:19;;;;;;;27.77;5.97;;;;;;;26.11;100.00;100356.88;5035480;28;20709;-80
2023/06/22 07:42:48;;;;;;;41.45;8.63;;;;;;;26.37;100.00;100373.53;5027454;28;20255;-80
2023/06/22 07:45:14;;;;;;;20.63;4.45;;;;;;;26.35;100.00;100349.22;5029565;28;20229;-80
2023/06/22 07:47:41;;;;;;;25.02;5.85;;;;;;;26.59;100.00;100346.03;5035614;28;20232;-80
2023/06/22 07:50:08;;;;;;;28.23;5.65;;;;;;;26.83;100.00;100333.75;5036832;28;20241;-80
2023/06/22 07:52:35;;;;;;;24.23;4.97;;;;;;;26.74;100.00;100309.88;5041607;28;20222;-80
2023/06/22 07:55:02;;;;;;;33.17;6.72;;;;;;;26.62;100.00;100276.22;5038273;28;20237;-80
2023/06/22 07:57:33;;;;;;;34.72;7.38;;;;;;;26.68;100.00;100232.44;5039511;28;20236;-80
2023/06/22 08:00:03;;;;;;;33.42;7.10;;;;;;;27.20;100.00;100240.09;5036398;28;20242;-80
2023/06/22 08:02:30;;;;;;;23.05;4.93;;;;;;;27.02;100.00;100173.41;5034555;28;20232;-80
2023/06/22 08:04:57;;;;;;;48.53;9.85;;;;;;;27.29;100.00;100192.50;5041149;28;20226;-80
2023/06/22 08:07:44;;;;;;;38.58;7.82;;;;;;;27.38;100.00;100170.22;5039718;28;20225;-80
2023/06/22 08:10:13;;;;;;;22.08;4.78;;;;;;;27.61;100.00;100187.75;5035694;28;20332;-81
2023/06/22 08:12:40;;;;;;;19.15;4.32;;;;;;;27.66;100.00;100128.56;5040311;28;20214;-81
2023/06/22 08:15:08;;;;;;;24.30;5.32;;;;;;;27.72;100.00;100129.03;5033788;28;20256;-81
2023/06/22 08:17:37;;;;;;;23.23;5.05;;;;;;;27.82;100.00;100101.25;5040431;28;20694;-80
2023/06/22 08:22:49;;;;;;;28.73;6.75;;;;;;;27.94;100.00;100067.78;5022262;23;20253;-80
2023/06/22 08:25:16;;;;;;;15.27;3.60;;;;;;;28.25;100.00;100063.84;5006894;28;20238;-80
2023/06/22 08:27:47;;;;;;;17.00;4.20;;;;;;;27.82;100.00;99992.53;5013182;28;20241;-78
2023/06/22 08:30:14;;;;;;;15.65;4.15;;;;;;;27.78;100.00;99974.72;4931809;28;20317;-80
2023/06/22 08:32:41;;;;;;;12.48;3.10;;;;;;;28.35;100.00;100057.66;4901827;28;20223;-79
2023/06/22 08:35:08;;;;;;;12.85;3.15;;;;;;;28.34;100.00;99982.47;4987950;28;20288;-79
2023/06/22 08:37:36;;;;;;;11.82;2.97;;;;;;;27.98;100.00;99945.16;5015605;28;20261;-77
2023/06/22 08:40:08;;;;;;;23.42;5.35;;;;;;;28.55;100.00;100000.97;5004972;28;20254;-78
2023/06/22 08:42:39;;;;;;;14.30;3.53;;;;;;;28.75;100.00;99969.59;5017404;28;20238;-77
2023/06/22 08:45:06;;;;;;;14.38;3.42;;;;;;;28.43;100.00;99896.63;5005247;28;20550;-78
2023/06/22 08:47:33;;;;;;;11.20;2.80;;;;;;;28.90;100.00;99954.91;5004693;28;20318;-77
2023/06/22 08:50:03;;;;;;;24.00;5.47;;;;;;;29.11;100.00;99934.22;5006859;28;20250;-80
2023/06/22 08:52:30;;;;;;;12.35;2.92;;;;;;;29.74;100.00;99983.91;5008535;28;20226;-79
2023/06/22 08:54:58;;;;;;;57.70;11.63;;;;;;;30.07;100.00;99942.31;5000040;28;20233;-79
2023/06/22 08:57:26;;;;;;;11.63;3.03;;;;;;;28.88;100.00;99831.66;5006787;28;20238;-79
2023/06/22 08:59:53;;;;;;;37.47;7.95;;;;;;;28.67;100.00;99796.03;5007324;28;20223;-79
2023/06/22 09:02:19;;;;;;;14.10;3.42;;;;;;;29.01;100.00;99810.69;5015369;28;20223;-79
2023/06/22 09:04:46;;;;;;;19.48;4.93;;;;;;;28.70;100.00;99762.28;4993884;28;20253;-79
2023/06/22 09:07:13;;;;;;;13.98;4.15;;;;;;;28.79;100.00;99732.50;5016661;28;20241;-79
2023/06/22 09:09:40;;;;;;;13.68;3.20;;;;;;;29.29;100.00;99735.88;5022669;28;20234;-80
2023/06/22 09:12:07;;;;;;;10.88;2.75;;;;;;;29.14;100.00;99704.41;5001350;28;20230;-79
2023/06/22 09:14:34;;;;;;;11.95;3.35;;;;;;;29.37;100.00;99713.47;5010741;28;20227;-78
2023/06/22 09:17:01;;;;;;;15.25;4.22;;;;;;;29.39;100.00;99678.81;4923511;28;20246;-78
2023/06/22 09:19:28;;;;;;;13.32;3.40;;;;;;;29.79;100.00;99699.13;5000467;28;20222;-79
2023/06/22 09:21:55;;;;;;;26.38;7.20;;;;;;;29.60;100.00;99641.66;4842119;28;20312;-79
2023/06/22 09:24:21;;;;;;;14.00;3.30;;;;;;;29.04;100.00;99550.97;4978918;28;20313;-78
2023/06/22 09:26:48;;;;;;;22.15;5.75;;;;;;;29.18;100.00;99548.84;4940308;28;20238;-78
2023/06/22 09:29:15;;;;;;;15.45;3.70;;;;;;;29.63;100.00;99606.00;5000633;28;20234;-79
2023/06/22 09:31:42;;;;;;;17.33;4.10;;;;;;;29.87;100.00;99586.72;5009801;28;20687;-79
2023/06/22 09:34:09;;;;;;;14.38;3.33;;;;;;;30.57;100.00;99636.16;5021234;28;20256;-80
2023/06/22 09:36:36;;;;;;;14.23;3.42;;;;;;;29.97;100.00;99489.56;5005097;28;20238;-80
2023/06/22 09:39:06;;;;;;;18.05;4.10;;;;;;;29.97;100.00;99488.69;4986385;28;20231;-79
2023/06/22 09:41:33;;;;;;;14.27;3.30;;;;;;;30.33;100.00;99495.56;5016041;28;20292;-80
2023/06/22 09:43:59;;;;;;;34.95;8.15;;;;;;;30.29;100.00;99477.75;5018154;28;20237;-80
2023/06/22 09:46:26;;;;;;;10.98;2.63;;;;;;;29.92;100.00;99382.78;5009184;28;20243;-79
2023/06/22 09:48:53;;;;;;;37.83;8.55;;;;;;;29.92;100.00;99382.78;4999979;28;20238;-80
2023/06/22 09:51:21;;;;;;;11.07;2.65;;;;;;;30.11;100.00;99415.66;5010812;28;20237;-79
2023/06/22 09:53:48;;;;;;;44.03;8.68;;;;;;;29.92;100.00;99385.53;5017671;28;20233;-80
2023/06/22 09:56:15;;;;;;;15.63;3.50;;;;;;;30.08;100.00;99398.69;5023280;28;20230;-80
2023/06/22 09:58:43;;;;;;;12.80;2.95;;;;;;;29.89;100.00;99363.94;5009066;28;20230;-81
2023/06/22 10:01:10;;;;;;;9.80;2.40;;;;;;;30.54;100.00;99425.47;5000720;28;20262;-76
2023/06/22 10:03:37;;;;;;;10.02;2.67;;;;;;;30.43;100.00;99354.63;4995703;28;20234;-78
2023/06/22 10:06:05;;;;;;;20.63;4.63;;;;;;;30.25;100.00;99348.97;5008096;28;20239;-78
2023/06/22 10:08:32;;;;;;;10.95;2.63;;;;;;;30.74;100.00;99363.66;5020171;28;20276;-78
2023/06/22 10:10:59;;;;;;;31.63;8.57;;;;;;;30.22;100.00;99308.34;5015327;28;20230;-78
2023/06/22 10:13:26;;;;;;;11.88;2.90;;;;;;;30.31;100.00;99310.25;5003565;28;20234;-78
2023/06/22 10:15:53;;;;;;;24.92;6.45;;;;;;;30.30;100.00;99289.44;5014695;28;20226;-78
2023/06/22 10:18:20;;;;;;;11.00;2.70;;;;;;;31.00;100.00;99345.75;5020479;28;20226;-78
2023/06/22 10:20:53;;;;;;;16.27;4.43;;;;;;;31.54;100.00;99348.94;4968241;28;20234;-78
2023/06/22 10:23:20;;;;;;;12.15;2.80;;;;;;;30.99;100.00;99244.88;4902182;28;20232;-78
2023/06/22 10:25:47;;;;;;;27.40;6.80;;;;;;;31.62;100.00;99283.50;4998558;28;20226;-78
2023/06/22 10:28:14;;;;;;;14.27;3.20;;;;;;;32.39;100.00;99344.28;5017121;28;20612;-78
2023/06/22 10:30:41;;;;;;;10.52;2.50;;;;;;;31.56;100.00;99191.19;5018545;28;20240;-80
2023/06/22 10:33:09;;;;;;;13.10;2.90;;;;;;;31.78;100.00;99232.69;5004477;28;20231;-79
2023/06/22 10:35:39;;;;;;;16.90;3.67;;;;;;;31.74;100.00;99194.88;5025216;28;20234;-79
2023/06/22 10:38:06;;;;;;;10.77;2.35;;;;;;;31.45;100.00;99143.91;5004796;28;20683;-80
2023/06/22 10:40:33;;;;;;;15.07;3.25;;;;;;;31.37;100.00;99149.25;5023265;28;20222;-79
2023/06/22 10:43:00;;;;;;;18.10;4.03;;;;;;;31.77;100.00;99162.63;5019860;28;20226;-79
2023/06/22 10:45:29;;;;;;;10.80;2.42;;;;;;;32.32;100.00;99148.06;5024741;28;20250;-80
2023/06/22 10:47:56;;;;;;;30.52;6.53;;;;;;;32.31;100.00;99125.31;5017509;28;20242;-79
2023/06/22 10:50:25;;;;;;;9.55;2.20;;;;;;;31.72;100.00;99066.56;5026805;28;20254;-77
2023/06/22 10:52:52;;;;;;;30.02;7.05;;;;;;;32.27;100.00;99175.03;5023385;28;20226;-78
2023/06/22 10:55:18;;;;;;;14.20;3.30;;;;;;;32.30;100.00;99167.34;5019191;28;20230;-77
2023/06/22 10:57:46;;;;;;;22.65;5.45;;;;;;;31.51;100.00;99075.00;5015208;28;20230;-78
2023/06/22 11:00:15;;;;;;;8.63;2.15;;;;;;;31.74;100.00;99080.06;5013901;28;20639;-76
2023/06/22 11:02:42;;;;;;;14.70;3.88;;;;;;;31.58;100.00;99093.50;4999753;28;20230;-76
2023/06/22 11:05:10;;;;;;;9.23;2.63;;;;;;;31.87;100.00;99127.03;5012260;28;20258;-76
2023/06/22 11:07:38;;;;;;;10.35;2.58;;;;;;;32.82;100.00;99214.09;5021656;28;20234;-76
2023/06/22 11:10:05;;;;;;;10.40;2.63;;;;;;;32.44;100.00;99207.88;5012678;28;20245;-77
2023/06/22 11:12:32;;;;;;;8.93;2.17;;;;;;;32.48;100.00;99145.47;5022573;28;20242;-77
2023/06/22 11:14:59;;;;;;;21.30;5.18;;;;;;;32.89;100.00;99159.56;5015773;28;20230;-78
2023/06/22 11:17:25;;;;;;;13.68;3.42;;;;;;;32.38;100.00;99079.03;5033334;28;20237;-77